Aviation Digital Data Service (ADDS)

Output produced by METARs form (1812 UTC 19 August 2019)
found at http://www.aviationweather.gov/metar/data/
 
METAR text: PAKN 191754Z 35004KT 9SM FU CLR 11/04 A2995 RMK AO2 SLP140 T01060044 10106 20017 58005
Conditions at: PAKN (KING SALMON , AK, US) observed 1754 UTC 19 August 2019
Temperature: 10.6°C (51°F)
Dewpoint: 4.4°C (40°F) [RH = 65%]
Pressure (altimeter): 29.95 inches Hg (1014.3 mb)
[Sea-level pressure: 1014.0 mb]
Winds: from the N (350 degrees) at 5 MPH (4 knots; 2.1 m/s)
Visibility: 9 miles (14 km)
Ceiling: at least 12,000 feet AGL
Clouds: sky clear below 12,000 feet AGL
Weather: FU  (smoke)

METAR text: PAKN 191654Z 00000KT 6SM FU CLR 06/04 A2996 RMK AO2 SLP144 T00610039
Conditions at: PAKN (KING SALMON , AK, US) observed 1654 UTC 19 August 2019
Temperature: 6.1°C (43°F)
Dewpoint: 3.9°C (39°F) [RH = 86%]
Pressure (altimeter): 29.96 inches Hg (1014.6 mb)
[Sea-level pressure: 1014.4 mb]
Winds: calm
Visibility: 6 miles (10 km)
Ceiling: at least 12,000 feet AGL
Clouds: sky clear below 12,000 feet AGL
Weather: FU  (smoke)

METAR text: PAKN 191554Z 34003KT 4SM BR CLR 04/02 A2996 RMK AO2 SLP146 T00440022
Conditions at: PAKN (KING SALMON , AK, US) observed 1554 UTC 19 August 2019
Temperature: 4.4°C (40°F)
Dewpoint: 2.2°C (36°F) [RH = 86%]
Pressure (altimeter): 29.96 inches Hg (1014.6 mb)
[Sea-level pressure: 1014.6 mb]
Winds: from the NNW (340 degrees) at 3 MPH (3 knots; 1.5 m/s)
Visibility: 4 miles ( 6 km)
Ceiling: at least 12,000 feet AGL
Clouds: sky clear below 12,000 feet AGL
Weather: BR  (mist)

METAR text: PAKN 191454Z AUTO 00000KT 4SM BR CLR 02/01 A2996 RMK AO2 SLP145 T00220011 58007 TSNO
Conditions at: PAKN (KING SALMON , AK, US) observed 1454 UTC 19 August 2019
Temperature: 2.2°C (36°F)
Dewpoint: 1.1°C (34°F) [RH = 92%]
Pressure (altimeter): 29.96 inches Hg (1014.6 mb)
[Sea-level pressure: 1014.5 mb]
Winds: calm
Visibility: 4 miles ( 6 km)
Ceiling: at least 12,000 feet AGL
Clouds: sky clear below 12,000 feet AGL
Weather: BR  (mist)

METAR text: PAKN 191354Z AUTO 01004KT 4SM BR CLR 03/02 A2997 RMK AO2 SLP149 T00330017 TSNO
Conditions at: PAKN (KING SALMON , AK, US) observed 1354 UTC 19 August 2019
Temperature: 3.3°C (38°F)
Dewpoint: 1.7°C (35°F) [RH = 89%]
Pressure (altimeter): 29.97 inches Hg (1015.0 mb)
[Sea-level pressure: 1014.9 mb]
Winds: from the N (10 degrees) at 5 MPH (4 knots; 2.1 m/s)
Visibility: 4 miles ( 6 km)
Ceiling: at least 12,000 feet AGL
Clouds: sky clear below 12,000 feet AGL
Weather: BR  (mist)

METAR text: PAKN 191254Z AUTO 34004KT 5SM HZ CLR 05/02 A2998 RMK AO2 SLP151 T00500022 TSNO
Conditions at: PAKN (KING SALMON , AK, US) observed 1254 UTC 19 August 2019
Temperature: 5.0°C (41°F)
Dewpoint: 2.2°C (36°F) [RH = 82%]
Pressure (altimeter): 29.98 inches Hg (1015.3 mb)
[Sea-level pressure: 1015.1 mb]
Winds: from the NNW (340 degrees) at 5 MPH (4 knots; 2.1 m/s)
Visibility: 5 miles ( 8 km)
Ceiling: at least 12,000 feet AGL
Clouds: sky clear below 12,000 feet AGL
Weather: HZ  (haze)

METAR text: PAKN 191154Z 03006KT 6SM HZ CLR 06/03 A2998 RMK AO2 SLP153 T00610028 10150 20061 58002
Conditions at: PAKN (KING SALMON , AK, US) observed 1154 UTC 19 August 2019
Temperature: 6.1°C (43°F)
Dewpoint: 2.8°C (37°F) [RH = 79%]
Pressure (altimeter): 29.98 inches Hg (1015.3 mb)
[Sea-level pressure: 1015.3 mb]
Winds: from the NNE (30 degrees) at 7 MPH (6 knots; 3.1 m/s)
Visibility: 6 miles (10 km)
Ceiling: at least 12,000 feet AGL
Clouds: sky clear below 12,000 feet AGL
Weather: HZ  (haze)

METAR text: PAKN 191054Z 36005KT 7SM CLR 07/03 A2999 RMK AO2 SLP155 T00720028
Conditions at: PAKN (KING SALMON , AK, US) observed 1054 UTC 19 August 2019
Temperature: 7.2°C (45°F)
Dewpoint: 2.8°C (37°F) [RH = 74%]
Pressure (altimeter): 29.99 inches Hg (1015.7 mb)
[Sea-level pressure: 1015.5 mb]
Winds: from the N (360 degrees) at 6 MPH (5 knots; 2.6 m/s)
Visibility: 7 miles (11 km)
Ceiling: at least 12,000 feet AGL
Clouds: sky clear below 12,000 feet AGL
Weather: no significant weather observed at this time

METAR text: PAKN 190954Z 36007KT 9SM CLR 08/03 A2999 RMK AO2 SLP155 T00830033
Conditions at: PAKN (KING SALMON , AK, US) observed 0954 UTC 19 August 2019
Temperature: 8.3°C (47°F)
Dewpoint: 3.3°C (38°F) [RH = 71%]
Pressure (altimeter): 29.99 inches Hg (1015.7 mb)
[Sea-level pressure: 1015.5 mb]
Winds: from the N (360 degrees) at 8 MPH (7 knots; 3.6 m/s)
Visibility: 9 miles (14 km)
Ceiling: at least 12,000 feet AGL
Clouds: sky clear below 12,000 feet AGL
Weather: no significant weather observed at this time

METAR text: PAKN 190854Z 03004KT 8SM FEW230 09/04 A2999 RMK AO2 SLP155 T00940039 402220067 51008
Conditions at: PAKN (KING SALMON , AK, US) observed 0854 UTC 19 August 2019
Temperature: 9.4°C (49°F)
Dewpoint: 3.9°C (39°F) [RH = 68%]
Pressure (altimeter): 29.99 inches Hg (1015.7 mb)
[Sea-level pressure: 1015.5 mb]
Winds: from the NNE (30 degrees) at 5 MPH (4 knots; 2.1 m/s)
Visibility: 8 miles (13 km)
Ceiling: at least 12,000 feet AGL
Clouds: few clouds at 23000 feet AGL
Weather: no significant weather observed at this time

METAR text: PAKN 190754Z 36006KT 9SM FEW230 10/04 A2999 RMK AO2 SLP155 T01000044
Conditions at: PAKN (KING SALMON , AK, US) observed 0754 UTC 19 August 2019
Temperature: 10.0°C (50°F)
Dewpoint: 4.4°C (40°F) [RH = 68%]
Pressure (altimeter): 29.99 inches Hg (1015.7 mb)
[Sea-level pressure: 1015.5 mb]
Winds: from the N (360 degrees) at 7 MPH (6 knots; 3.1 m/s)
Visibility: 9 miles (14 km)
Ceiling: at least 12,000 feet AGL
Clouds: few clouds at 23000 feet AGL
Weather: no significant weather observed at this time

METAR text: PAKN 190654Z 02009KT 5SM HZ FEW230 13/04 A2997 RMK AO2 SLP148 T01330039
Conditions at: PAKN (KING SALMON , AK, US) observed 0654 UTC 19 August 2019
Temperature: 13.3°C (56°F)
Dewpoint: 3.9°C (39°F) [RH = 53%]
Pressure (altimeter): 29.97 inches Hg (1015.0 mb)
[Sea-level pressure: 1014.8 mb]
Winds: from the NNE (20 degrees) at 10 MPH (9 knots; 4.6 m/s)
Visibility: 5 miles ( 8 km)
Ceiling: at least 12,000 feet AGL
Clouds: few clouds at 23000 feet AGL
Weather: HZ  (haze)

METAR text: PAKN 190554Z 36007KT 8SM FEW230 15/05 A2996 RMK AO2 SLP147 T01500050 10222 20150 53002
Conditions at: PAKN (KING SALMON , AK, US) observed 0554 UTC 19 August 2019
Temperature: 15.0°C (59°F)
Dewpoint: 5.0°C (41°F) [RH = 51%]
Pressure (altimeter): 29.96 inches Hg (1014.6 mb)
[Sea-level pressure: 1014.7 mb]
Winds: from the N (360 degrees) at 8 MPH (7 knots; 3.6 m/s)
Visibility: 8 miles (13 km)
Ceiling: at least 12,000 feet AGL
Clouds: few clouds at 23000 feet AGL
Weather: no significant weather observed at this time

METAR text: PAKN 190454Z 36010G20KT 10SM FEW230 18/04 A2996 RMK AO2 SLP145 T01830039
Conditions at: PAKN (KING SALMON , AK, US) observed 0454 UTC 19 August 2019
Temperature: 18.3°C (65°F)
Dewpoint: 3.9°C (39°F) [RH = 38%]
Pressure (altimeter): 29.96 inches Hg (1014.6 mb)
[Sea-level pressure: 1014.5 mb]
Winds: from the N (360 degrees) at 12 MPH (10 knots; 5.1 m/s)
gusting to 23 MPH (20 knots; 10.3 m/s)
Visibility: 10 or more miles (16+ km)
Ceiling: at least 12,000 feet AGL
Clouds: few clouds at 23000 feet AGL
Weather: no significant weather observed at this time

METAR text: PAKN 190354Z 36012G20KT 10SM CLR 20/03 A2996 RMK AO2 SLP144 T02000033
Conditions at: PAKN (KING SALMON , AK, US) observed 0354 UTC 19 August 2019
Temperature: 20.0°C (68°F)
Dewpoint: 3.3°C (38°F) [RH = 33%]
Pressure (altimeter): 29.96 inches Hg (1014.6 mb)
[Sea-level pressure: 1014.4 mb]
Winds: from the N (360 degrees) at 14 MPH (12 knots; 6.2 m/s)
gusting to 23 MPH (20 knots; 10.3 m/s)
Visibility: 10 or more miles (16+ km)
Ceiling: at least 12,000 feet AGL
Clouds: sky clear below 12,000 feet AGL
Weather: no significant weather observed at this time

METAR text: PAKN 190254Z 36013G21KT 10SM CLR 22/03 A2996 RMK AO2 SLP144 T02170033 56013
Conditions at: PAKN (KING SALMON , AK, US) observed 0254 UTC 19 August 2019
Temperature: 21.7°C (71°F)
Dewpoint: 3.3°C (38°F) [RH = 30%]
Pressure (altimeter): 29.96 inches Hg (1014.6 mb)
[Sea-level pressure: 1014.4 mb]
Winds: from the N (360 degrees) at 15 MPH (13 knots; 6.7 m/s)
gusting to 24 MPH (21 knots; 10.8 m/s)
Visibility: 10 or more miles (16+ km)
Ceiling: at least 12,000 feet AGL
Clouds: sky clear below 12,000 feet AGL
Weather: no significant weather observed at this time

METAR text: PAKN 190201Z 36015G23KT 8SM CLR 22/03 A2996 RMK AO2 T02220028
Conditions at: PAKN (KING SALMON , AK, US) observed 0201 UTC 19 August 2019
Temperature: 22.2°C (72°F)
Dewpoint: 2.8°C (37°F) [RH = 28%]
Pressure (altimeter): 29.96 inches Hg (1014.6 mb)
Winds: from the N (360 degrees) at 17 MPH (15 knots; 7.7 m/s)
gusting to 26 MPH (23 knots; 11.8 m/s)
Visibility: 8 miles (13 km)
Ceiling: at least 12,000 feet AGL
Clouds: sky clear below 12,000 feet AGL
Weather: no significant weather observed at this time

METAR text: PAKN 190154Z 36015G22KT 5SM FU HZ BKN028 22/03 A2996 RMK AO2 SLP146 T02170028
Conditions at: PAKN (KING SALMON , AK, US) observed 0154 UTC 19 August 2019
Temperature: 21.7°C (71°F)
Dewpoint: 2.8°C (37°F) [RH = 29%]
Pressure (altimeter): 29.96 inches Hg (1014.6 mb)
[Sea-level pressure: 1014.6 mb]
Winds: from the N (360 degrees) at 17 MPH (15 knots; 7.7 m/s)
gusting to 25 MPH (22 knots; 11.3 m/s)
Visibility: 5 miles ( 8 km)
Ceiling: 2800 feet AGL
Clouds: broken clouds at 2800 feet AGL
Weather: FU HZ  (smoke, haze)

METAR text: PAKN 190126Z 35014G23KT 5SM FU HZ BKN028 22/03 A2997 RMK AO2 T02170028
Conditions at: PAKN (KING SALMON , AK, US) observed 0126 UTC 19 August 2019
Temperature: 21.7°C (71°F)
Dewpoint: 2.8°C (37°F) [RH = 29%]
Pressure (altimeter): 29.97 inches Hg (1015.0 mb)
Winds: from the N (350 degrees) at 16 MPH (14 knots; 7.2 m/s)
gusting to 26 MPH (23 knots; 11.8 m/s)
Visibility: 5 miles ( 8 km)
Ceiling: 2800 feet AGL
Clouds: broken clouds at 2800 feet AGL
Weather: FU HZ  (smoke, haze)

METAR text: PAKN 190112Z 35018G24KT 2 1/2SM FU HZ BKN028 22/03 A2997 RMK AO2 T02170028
Conditions at: PAKN (KING SALMON , AK, US) observed 0112 UTC 19 August 2019
Temperature: 21.7°C (71°F)
Dewpoint: 2.8°C (37°F) [RH = 29%]
Pressure (altimeter): 29.97 inches Hg (1015.0 mb)
Winds: from the N (350 degrees) at 21 MPH (18 knots; 9.3 m/s)
gusting to 28 MPH (24 knots; 12.3 m/s)
Visibility: 2.50 miles (4.02 km)
Ceiling: 2800 feet AGL
Clouds: broken clouds at 2800 feet AGL
Weather: FU HZ  (smoke, haze)

METAR text: PAKN 190054Z 35016G24KT 2 1/2SM FU HZ BKN035 22/03 A2998 RMK AO2 SLP151 T02170028
Conditions at: PAKN (KING SALMON , AK, US) observed 0054 UTC 19 August 2019
Temperature: 21.7°C (71°F)
Dewpoint: 2.8°C (37°F) [RH = 29%]
Pressure (altimeter): 29.98 inches Hg (1015.3 mb)
[Sea-level pressure: 1015.1 mb]
Winds: from the N (350 degrees) at 18 MPH (16 knots; 8.2 m/s)
gusting to 28 MPH (24 knots; 12.3 m/s)
Visibility: 2.50 miles (4.02 km)
Ceiling: 3500 feet AGL
Clouds: broken clouds at 3500 feet AGL
Weather: FU HZ  (smoke, haze)

METAR text: PAKN 190024Z 35011G19KT 2 1/2SM FU HZ BKN033 22/03 A2999 RMK AO2 T02170033
Conditions at: PAKN (KING SALMON , AK, US) observed 0024 UTC 19 August 2019
Temperature: 21.7°C (71°F)
Dewpoint: 3.3°C (38°F) [RH = 30%]
Pressure (altimeter): 29.99 inches Hg (1015.7 mb)
Winds: from the N (350 degrees) at 13 MPH (11 knots; 5.7 m/s)
gusting to 22 MPH (19 knots; 9.8 m/s)
Visibility: 2.50 miles (4.02 km)
Ceiling: 3300 feet AGL
Clouds: broken clouds at 3300 feet AGL
Weather: FU HZ  (smoke, haze)

METAR text: PAKN 190003Z 02015G23KT 3SM FU BKN035 22/04 A2999 RMK AO2 T02170039
Conditions at: PAKN (KING SALMON , AK, US) observed 0003 UTC 19 August 2019
Temperature: 21.7°C (71°F)
Dewpoint: 3.9°C (39°F) [RH = 31%]
Pressure (altimeter): 29.99 inches Hg (1015.7 mb)
Winds: from the NNE (20 degrees) at 17 MPH (15 knots; 7.7 m/s)
gusting to 26 MPH (23 knots; 11.8 m/s)
Visibility: 3 miles ( 5 km)
Ceiling: 3500 feet AGL
Clouds: broken clouds at 3500 feet AGL
Weather: FU  (smoke)

METAR text: PAKN 182354Z 36015G26KT 2 1/2SM FU BKN033 21/03 A3000 RMK AO2 PK WND 01026/2349 SLP157 T02110033 10217 20111 58024
Conditions at: PAKN (KING SALMON , AK, US) observed 2354 UTC 18 August 2019
Temperature: 21.1°C (70°F)
Dewpoint: 3.3°C (38°F) [RH = 31%]
Pressure (altimeter): 30.00 inches Hg (1016.0 mb)
[Sea-level pressure: 1015.7 mb]
Winds: from the N (360 degrees) at 17 MPH (15 knots; 7.7 m/s)
gusting to 30 MPH (26 knots; 13.4 m/s)
Visibility: 2.50 miles (4.02 km)
Ceiling: 3300 feet AGL
Clouds: broken clouds at 3300 feet AGL
Weather: FU  (smoke)

METAR text: PAKN 182314Z 36011G20KT 2 1/2SM FU CLR 21/04 A3001 RMK AO2 T02110044
Conditions at: PAKN (KING SALMON , AK, US) observed 2314 UTC 18 August 2019
Temperature: 21.1°C (70°F)
Dewpoint: 4.4°C (40°F) [RH = 33%]
Pressure (altimeter): 30.01 inches Hg (1016.3 mb)
Winds: from the N (360 degrees) at 13 MPH (11 knots; 5.7 m/s)
gusting to 23 MPH (20 knots; 10.3 m/s)
Visibility: 2.50 miles (4.02 km)
Ceiling: at least 12,000 feet AGL
Clouds: sky clear below 12,000 feet AGL
Weather: FU  (smoke)

METAR text: PAKN 182254Z 01016G21KT 4SM FU CLR 20/04 A3002 RMK AO2 SLP166 T02000039
Conditions at: PAKN (KING SALMON , AK, US) observed 2254 UTC 18 August 2019
Temperature: 20.0°C (68°F)
Dewpoint: 3.9°C (39°F) [RH = 35%]
Pressure (altimeter): 30.02 inches Hg (1016.7 mb)
[Sea-level pressure: 1016.6 mb]
Winds: from the N (10 degrees) at 18 MPH (16 knots; 8.2 m/s)
gusting to 24 MPH (21 knots; 10.8 m/s)
Visibility: 4 miles ( 6 km)
Ceiling: at least 12,000 feet AGL
Clouds: sky clear below 12,000 feet AGL
Weather: FU  (smoke)

METAR text: PAKN 182154Z 36011G18KT 4SM FU CLR 18/04 A3004 RMK AO2 SLP172 T01830044
Conditions at: PAKN (KING SALMON , AK, US) observed 2154 UTC 18 August 2019
Temperature: 18.3°C (65°F)
Dewpoint: 4.4°C (40°F) [RH = 40%]
Pressure (altimeter): 30.04 inches Hg (1017.4 mb)
[Sea-level pressure: 1017.2 mb]
Winds: from the N (360 degrees) at 13 MPH (11 knots; 5.7 m/s)
gusting to 21 MPH (18 knots; 9.3 m/s)
Visibility: 4 miles ( 6 km)
Ceiling: at least 12,000 feet AGL
Clouds: sky clear below 12,000 feet AGL
Weather: FU  (smoke)

METAR text: PAKN 182054Z 36010G18KT 4SM FU CLR 17/06 A3007 RMK AO2 SLP181 T01720056 58016
Conditions at: PAKN (KING SALMON , AK, US) observed 2054 UTC 18 August 2019
Temperature: 17.2°C (63°F)
Dewpoint: 5.6°C (42°F) [RH = 46%]
Pressure (altimeter): 30.07 inches Hg (1018.4 mb)
[Sea-level pressure: 1018.1 mb]
Winds: from the N (360 degrees) at 12 MPH (10 knots; 5.1 m/s)
gusting to 21 MPH (18 knots; 9.3 m/s)
Visibility: 4 miles ( 6 km)
Ceiling: at least 12,000 feet AGL
Clouds: sky clear below 12,000 feet AGL
Weather: FU  (smoke)

METAR text: PAKN 181954Z 36010KT 9SM FU HZ CLR 16/06 A3009 RMK AO2 SLP188 T01560061
Conditions at: PAKN (KING SALMON , AK, US) observed 1954 UTC 18 August 2019
Temperature: 15.6°C (60°F)
Dewpoint: 6.1°C (43°F) [RH = 53%]
Pressure (altimeter): 30.09 inches Hg (1019.0 mb)
[Sea-level pressure: 1018.8 mb]
Winds: from the N (360 degrees) at 12 MPH (10 knots; 5.1 m/s)
Visibility: 9 miles (14 km)
Ceiling: at least 12,000 feet AGL
Clouds: sky clear below 12,000 feet AGL
Weather: FU HZ  (smoke, haze)

METAR text: PAKN 181854Z 36007KT 7SM FU HZ CLR 13/06 A3010 RMK AO2 SLP193 T01330061
Conditions at: PAKN (KING SALMON , AK, US) observed 1854 UTC 18 August 2019
Temperature: 13.3°C (56°F)
Dewpoint: 6.1°C (43°F) [RH = 62%]
Pressure (altimeter): 30.10 inches Hg (1019.4 mb)
[Sea-level pressure: 1019.3 mb]
Winds: from the N (360 degrees) at 8 MPH (7 knots; 3.6 m/s)
Visibility: 7 miles (11 km)
Ceiling: at least 12,000 feet AGL
Clouds: sky clear below 12,000 feet AGL
Weather: FU HZ  (smoke, haze)

METAR text: PAKN 181754Z 36009KT 6SM FU HZ CLR 11/06 A3012 RMK AO2 SLP198 T01110056 10111 20067 56009
Conditions at: PAKN (KING SALMON , AK, US) observed 1754 UTC 18 August 2019
Temperature: 11.1°C (52°F)
Dewpoint: 5.6°C (42°F) [RH = 69%]
Pressure (altimeter): 30.12 inches Hg (1020.1 mb)
[Sea-level pressure: 1019.8 mb]
Winds: from the N (360 degrees) at 10 MPH (9 knots; 4.6 m/s)
Visibility: 6 miles (10 km)
Ceiling: at least 12,000 feet AGL
Clouds: sky clear below 12,000 feet AGL
Weather: FU HZ  (smoke, haze)

METAR text: PAKN 181654Z 01008KT 6SM FU HZ CLR 09/05 A3012 RMK AO2 SLP200 T00890050
Conditions at: PAKN (KING SALMON , AK, US) observed 1654 UTC 18 August 2019
Temperature: 8.9°C (48°F)
Dewpoint: 5.0°C (41°F) [RH = 76%]
Pressure (altimeter): 30.12 inches Hg (1020.1 mb)
[Sea-level pressure: 1020.0 mb]
Winds: from the N (10 degrees) at 9 MPH (8 knots; 4.1 m/s)
Visibility: 6 miles (10 km)
Ceiling: at least 12,000 feet AGL
Clouds: sky clear below 12,000 feet AGL
Weather: FU HZ  (smoke, haze)

METAR text: PAKN 181554Z 01007KT 5SM BR CLR 07/04 A3013 RMK AO2 SLP203 T00670044 TSNO
Conditions at: PAKN (KING SALMON , AK, US) observed 1554 UTC 18 August 2019
Temperature: 6.7°C (44°F)
Dewpoint: 4.4°C (40°F) [RH = 85%]
Pressure (altimeter): 30.13 inches Hg (1020.4 mb)
[Sea-level pressure: 1020.3 mb]
Winds: from the N (10 degrees) at 8 MPH (7 knots; 3.6 m/s)
Visibility: 5 miles ( 8 km)
Ceiling: at least 12,000 feet AGL
Clouds: sky clear below 12,000 feet AGL
Weather: BR  (mist)

METAR text: PAKN 181454Z AUTO 01010KT 8SM CLR 07/05 A3014 RMK AO2 SLP207 T00720050 58010 TSNO
Conditions at: PAKN (KING SALMON , AK, US) observed 1454 UTC 18 August 2019
Temperature: 7.2°C (45°F)
Dewpoint: 5.0°C (41°F) [RH = 86%]
Pressure (altimeter): 30.14 inches Hg (1020.7 mb)
[Sea-level pressure: 1020.7 mb]
Winds: from the N (10 degrees) at 12 MPH (10 knots; 5.1 m/s)
Visibility: 8 miles (13 km)
Ceiling: at least 12,000 feet AGL
Clouds: sky clear below 12,000 feet AGL
Weather: automated observation with no human augmentation;
there may or may not be significant weather present at this time

METAR text: PAKN 181354Z AUTO 01007KT 7SM CLR 07/05 A3015 RMK AO2 SLP210 T00720050 TSNO
Conditions at: PAKN (KING SALMON , AK, US) observed 1354 UTC 18 August 2019
Temperature: 7.2°C (45°F)
Dewpoint: 5.0°C (41°F) [RH = 86%]
Pressure (altimeter): 30.15 inches Hg (1021.1 mb)
[Sea-level pressure: 1021.0 mb]
Winds: from the N (10 degrees) at 8 MPH (7 knots; 3.6 m/s)
Visibility: 7 miles (11 km)
Ceiling: at least 12,000 feet AGL
Clouds: sky clear below 12,000 feet AGL
Weather: automated observation with no human augmentation;
there may or may not be significant weather present at this time

METAR text: PAKN 181254Z AUTO 36007KT 9SM CLR 09/06 A3016 RMK AO2 SLP214 T00890056 TSNO
Conditions at: PAKN (KING SALMON , AK, US) observed 1254 UTC 18 August 2019
Temperature: 8.9°C (48°F)
Dewpoint: 5.6°C (42°F) [RH = 80%]
Pressure (altimeter): 30.16 inches Hg (1021.4 mb)
[Sea-level pressure: 1021.4 mb]
Winds: from the N (360 degrees) at 8 MPH (7 knots; 3.6 m/s)
Visibility: 9 miles (14 km)
Ceiling: at least 12,000 feet AGL
Clouds: sky clear below 12,000 feet AGL
Weather: automated observation with no human augmentation;
there may or may not be significant weather present at this time

METAR text: PAKN 181154Z 35007KT 10SM CLR 09/06 A3017 RMK AO2 SLP217 T00940061 10161 20094 56012
Conditions at: PAKN (KING SALMON , AK, US) observed 1154 UTC 18 August 2019
Temperature: 9.4°C (49°F)
Dewpoint: 6.1°C (43°F) [RH = 80%]
Pressure (altimeter): 30.17 inches Hg (1021.8 mb)
[Sea-level pressure: 1021.7 mb]
Winds: from the N (350 degrees) at 8 MPH (7 knots; 3.6 m/s)
Visibility: 10 or more miles (16+ km)
Ceiling: at least 12,000 feet AGL
Clouds: sky clear below 12,000 feet AGL
Weather: no significant weather observed at this time

METAR text: PAKN 181054Z 35008KT 10SM CLR 09/06 A3018 RMK AO2 SLP219 T00940061
Conditions at: PAKN (KING SALMON , AK, US) observed 1054 UTC 18 August 2019
Temperature: 9.4°C (49°F)
Dewpoint: 6.1°C (43°F) [RH = 80%]
Pressure (altimeter): 30.18 inches Hg (1022.1 mb)
[Sea-level pressure: 1021.9 mb]
Winds: from the N (350 degrees) at 9 MPH (8 knots; 4.1 m/s)
Visibility: 10 or more miles (16+ km)
Ceiling: at least 12,000 feet AGL
Clouds: sky clear below 12,000 feet AGL
Weather: no significant weather observed at this time

METAR text: PAKN 180954Z 35007KT 8SM CLR 10/06 A3020 RMK AO2 SLP225 T01000061
Conditions at: PAKN (KING SALMON , AK, US) observed 0954 UTC 18 August 2019
Temperature: 10.0°C (50°F)
Dewpoint: 6.1°C (43°F) [RH = 77%]
Pressure (altimeter): 30.20 inches Hg (1022.8 mb)
[Sea-level pressure: 1022.5 mb]
Winds: from the N (350 degrees) at 8 MPH (7 knots; 3.6 m/s)
Visibility: 8 miles (13 km)
Ceiling: at least 12,000 feet AGL
Clouds: sky clear below 12,000 feet AGL
Weather: no significant weather observed at this time

METAR text: PAKN 180854Z 34005KT 7SM CLR 11/06 A3021 RMK AO2 SLP229 T01110061 402170078 58005
Conditions at: PAKN (KING SALMON , AK, US) observed 0854 UTC 18 August 2019
Temperature: 11.1°C (52°F)
Dewpoint: 6.1°C (43°F) [RH = 71%]
Pressure (altimeter): 30.21 inches Hg (1023.1 mb)
[Sea-level pressure: 1022.9 mb]
Winds: from the NNW (340 degrees) at 6 MPH (5 knots; 2.6 m/s)
Visibility: 7 miles (11 km)
Ceiling: at least 12,000 feet AGL
Clouds: sky clear below 12,000 feet AGL
Weather: no significant weather observed at this time

METAR text: PAKN 180754Z 30004KT 5SM HZ CLR 12/07 A3022 RMK AO2 SLP233 T01220067
Conditions at: PAKN (KING SALMON , AK, US) observed 0754 UTC 18 August 2019
Temperature: 12.2°C (54°F)
Dewpoint: 6.7°C (44°F) [RH = 69%]
Pressure (altimeter): 30.22 inches Hg (1023.5 mb)
[Sea-level pressure: 1023.3 mb]
Winds: from the WNW (300 degrees) at 5 MPH (4 knots; 2.1 m/s)
Visibility: 5 miles ( 8 km)
Ceiling: at least 12,000 feet AGL
Clouds: sky clear below 12,000 feet AGL
Weather: HZ  (haze)

METAR text: PAKN 180654Z 33007KT 5SM HZ FEW240 14/07 A3023 RMK AO2 SLP236 T01440067
Conditions at: PAKN (KING SALMON , AK, US) observed 0654 UTC 18 August 2019
Temperature: 14.4°C (58°F)
Dewpoint: 6.7°C (44°F) [RH = 60%]
Pressure (altimeter): 30.23 inches Hg (1023.8 mb)
[Sea-level pressure: 1023.6 mb]
Winds: from the NNW (330 degrees) at 8 MPH (7 knots; 3.6 m/s)
Visibility: 5 miles ( 8 km)
Ceiling: at least 12,000 feet AGL
Clouds: few clouds at 24000 feet AGL
Weather: HZ  (haze)

Forecast for: PAKN (KING SALMON , AK, US)
Text: PAKN 191721Z 1918/2018 VRB06KT P6SM FEW250
Forecast period: 1800 to 2200 UTC 19 August 2019
Forecast type: FROM: standard forecast or significant change
Winds: variable direction winds at 7 MPH (6 knots; 3.1 m/s)
Visibility: 6 or more miles 10+ km)
Ceiling: at least 12,000 feet AGL
Clouds: few clouds at 25000 feet AGL
Weather: no significant weather forecast for this period
Text: FM192200 28010KT P6SM OVC050
Forecast period: 2200 UTC 19 August 2019 to 0600 UTC 20 August 2019
Forecast type: FROM: standard forecast or significant change
Winds: from the W (280 degrees) at 12 MPH (10 knots; 5.1 m/s)
Visibility: 6 or more miles 10+ km)
Ceiling: 5000 feet AGL
Clouds: overcast cloud deck at 5000 feet AGL
Weather: no significant weather forecast for this period
Text: FM200600 VRB03KT P6SM BKN050
Forecast period: 0600 to 1200 UTC 20 August 2019
Forecast type: FROM: standard forecast or significant change
Winds: variable direction winds at 3 MPH (3 knots; 1.5 m/s)
Visibility: 6 or more miles 10+ km)
Ceiling: 5000 feet AGL
Clouds: broken clouds at 5000 feet AGL
Weather: no significant weather forecast for this period
Text: FM201200 VRB03KT P6SM -RA OVC015
Forecast period: 1200 to 1800 UTC 20 August 2019
Forecast type: FROM: standard forecast or significant change
Winds: variable direction winds at 3 MPH (3 knots; 1.5 m/s)
Visibility: 6 or more miles 10+ km)
Ceiling: 1500 feet AGL
Clouds: overcast cloud deck at 1500 feet AGL
Weather: -RA  (light rain)